sensor_id;sensor_type;location;lat;lon;timestamp;pressure;altitude;pressure_sealevel;temperature
10869;BMP180;62667;48.698;8.762;2023-06-14T00:02:22;95607.00;;;14.40
10869;BMP180;62667;48.698;8.762;2023-06-14T00:04:50;95603.00;;;14.30
10869;BMP180;62667;48.698;8.762;2023-06-14T00:07:18;95600.00;;;14.40
10869;BMP180;62667;48.698;8.762;2023-06-14T00:09:45;95605.00;;;14.40
10869;BMP180;62667;48.698;8.762;2023-06-14T00:12:12;95600.00;;;14.60
10869;BMP180;62667;48.698;8.762;2023-06-14T00:14:39;95594.00;;;14.60
10869;BMP180;62667;48.698;8.762;2023-06-14T00:17:06;95602.00;;;14.50
10869;BMP180;62667;48.698;8.762;2023-06-14T00:19:35;95598.00;;;14.30
10869;BMP180;62667;48.698;8.762;2023-06-14T00:22:03;95600.00;;;14.30
10869;BMP180;62667;48.698;8.762;2023-06-14T00:24:30;95600.00;;;14.20
10869;BMP180;62667;48.698;8.762;2023-06-14T00:26:57;95594.00;;;14.20
10869;BMP180;62667;48.698;8.762;2023-06-14T00:29:24;95595.00;;;14.20
10869;BMP180;62667;48.698;8.762;2023-06-14T00:31:51;95593.00;;;14.00
10869;BMP180;62667;48.698;8.762;2023-06-14T00:34:18;95598.00;;;14.10
10869;BMP180;62667;48.698;8.762;2023-06-14T00:36:47;95597.00;;;14.00
10869;BMP180;62667;48.698;8.762;2023-06-14T00:39:14;95602.00;;;13.90
10869;BMP180;62667;48.698;8.762;2023-06-14T00:41:41;95596.00;;;14.00
10869;BMP180;62667;48.698;8.762;2023-06-14T00:44:08;95598.00;;;13.80
10869;BMP180;62667;48.698;8.762;2023-06-14T00:46:35;95586.00;;;13.80
10869;BMP180;62667;48.698;8.762;2023-06-14T00:49:02;95596.00;;;13.80
10869;BMP180;62667;48.698;8.762;2023-06-14T00:51:30;95602.00;;;13.70
10869;BMP180;62667;48.698;8.762;2023-06-14T00:53:59;95596.00;;;13.60
10869;BMP180;62667;48.698;8.762;2023-06-14T00:56:26;95587.00;;;13.70
10869;BMP180;62667;48.698;8.762;2023-06-14T00:58:54;95590.00;;;13.60
10869;BMP180;62667;48.698;8.762;2023-06-14T01:01:21;95585.00;;;13.50
10869;BMP180;62667;48.698;8.762;2023-06-14T01:03:49;95590.00;;;13.30
10869;BMP180;62667;48.698;8.762;2023-06-14T01:06:27;95590.00;;;13.40
10869;BMP180;62667;48.698;8.762;2023-06-14T01:09:09;95590.00;;;13.40
10869;BMP180;62667;48.698;8.762;2023-06-14T01:11:51;95582.00;;;13.40
10869;BMP180;62667;48.698;8.762;2023-06-14T01:14:21;95592.00;;;13.20
10869;BMP180;62667;48.698;8.762;2023-06-14T01:16:49;95594.00;;;13.30
10869;BMP180;62667;48.698;8.762;2023-06-14T01:19:20;95595.00;;;13.40
10869;BMP180;62667;48.698;8.762;2023-06-14T01:21:51;95599.00;;;13.40
10869;BMP180;62667;48.698;8.762;2023-06-14T01:24:23;95601.00;;;13.40
10869;BMP180;62667;48.698;8.762;2023-06-14T01:26:53;95592.00;;;13.40
10869;BMP180;62667;48.698;8.762;2023-06-14T01:29:23;95596.00;;;13.20
10869;BMP180;62667;48.698;8.762;2023-06-14T01:31:53;95601.00;;;12.60
10869;BMP180;62667;48.698;8.762;2023-06-14T01:34:20;95605.00;;;12.60
10869;BMP180;62667;48.698;8.762;2023-06-14T01:36:49;95598.00;;;12.80
10869;BMP180;62667;48.698;8.762;2023-06-14T01:39:19;95602.00;;;12.70
10869;BMP180;62667;48.698;8.762;2023-06-14T01:41:47;95598.00;;;12.70
10869;BMP180;62667;48.698;8.762;2023-06-14T01:44:18;95597.00;;;12.70
10869;BMP180;62667;48.698;8.762;2023-06-14T01:46:47;95599.00;;;12.70
10869;BMP180;62667;48.698;8.762;2023-06-14T01:49:15;95602.00;;;12.80
10869;BMP180;62667;48.698;8.762;2023-06-14T01:51:42;95602.00;;;12.60
10869;BMP180;62667;48.698;8.762;2023-06-14T01:54:09;95598.00;;;12.50
10869;BMP180;62667;48.698;8.762;2023-06-14T01:56:38;95599.00;;;12.50
10869;BMP180;62667;48.698;8.762;2023-06-14T01:59:05;95596.00;;;12.50
10869;BMP180;62667;48.698;8.762;2023-06-14T02:01:33;95593.00;;;12.50
10869;BMP180;62667;48.698;8.762;2023-06-14T02:04:01;95601.00;;;12.60
10869;BMP180;62667;48.698;8.762;2023-06-14T02:06:28;95598.00;;;12.50
10869;BMP180;62667;48.698;8.762;2023-06-14T02:08:56;95596.00;;;12.50
10869;BMP180;62667;48.698;8.762;2023-06-14T02:11:23;95600.00;;;12.50
10869;BMP180;62667;48.698;8.762;2023-06-14T02:13:52;95598.00;;;12.50
10869;BMP180;62667;48.698;8.762;2023-06-14T02:16:21;95593.00;;;12.60
10869;BMP180;62667;48.698;8.762;2023-06-14T02:18:48;95599.00;;;12.60
10869;BMP180;62667;48.698;8.762;2023-06-14T02:21:17;95603.00;;;12.60
10869;BMP180;62667;48.698;8.762;2023-06-14T02:23:44;95599.00;;;12.60
10869;BMP180;62667;48.698;8.762;2023-06-14T02:26:12;95596.00;;;12.60
10869;BMP180;62667;48.698;8.762;2023-06-14T02:28:39;95590.00;;;12.50
10869;BMP180;62667;48.698;8.762;2023-06-14T02:31:08;95591.00;;;12.40
10869;BMP180;62667;48.698;8.762;2023-06-14T02:33:35;95595.00;;;12.50
10869;BMP180;62667;48.698;8.762;2023-06-14T02:36:03;95600.00;;;12.40
10869;BMP180;62667;48.698;8.762;2023-06-14T02:38:31;95596.00;;;12.40
10869;BMP180;62667;48.698;8.762;2023-06-14T02:40:58;95597.00;;;12.20
10869;BMP180;62667;48.698;8.762;2023-06-14T02:43:28;95597.00;;;12.10
10869;BMP180;62667;48.698;8.762;2023-06-14T02:45:56;95582.00;;;12.00
10869;BMP180;62667;48.698;8.762;2023-06-14T02:48:24;95593.00;;;11.80
10869;BMP180;62667;48.698;8.762;2023-06-14T02:50:52;95585.00;;;11.80
10869;BMP180;62667;48.698;8.762;2023-06-14T02:53:19;95586.00;;;11.80
10869;BMP180;62667;48.698;8.762;2023-06-14T02:55:47;95583.00;;;11.80
10869;BMP180;62667;48.698;8.762;2023-06-14T02:58:14;95590.00;;;11.70
10869;BMP180;62667;48.698;8.762;2023-06-14T03:00:42;95592.00;;;11.60
10869;BMP180;62667;48.698;8.762;2023-06-14T03:03:10;95593.00;;;11.70
10869;BMP180;62667;48.698;8.762;2023-06-14T03:05:43;95592.00;;;11.60
10869;BMP180;62667;48.698;8.762;2023-06-14T03:08:13;95584.00;;;11.60
10869;BMP180;62667;48.698;8.762;2023-06-14T03:10:43;95583.00;;;11.70
10869;BMP180;62667;48.698;8.762;2023-06-14T03:13:10;95584.00;;;11.60
10869;BMP180;62667;48.698;8.762;2023-06-14T03:15:37;95580.00;;;11.60
10869;BMP180;62667;48.698;8.762;2023-06-14T03:18:07;95580.00;;;11.50
10869;BMP180;62667;48.698;8.762;2023-06-14T03:20:35;95589.00;;;11.50
10869;BMP180;62667;48.698;8.762;2023-06-14T03:23:04;95596.00;;;11.60
10869;BMP180;62667;48.698;8.762;2023-06-14T03:25:32;95591.00;;;11.70
10869;BMP180;62667;48.698;8.762;2023-06-14T03:28:01;95597.00;;;11.60
10869;BMP180;62667;48.698;8.762;2023-06-14T03:30:30;95594.00;;;11.50
10869;BMP180;62667;48.698;8.762;2023-06-14T03:32:58;95605.00;;;11.60
10869;BMP180;62667;48.698;8.762;2023-06-14T03:35:27;95603.00;;;11.50
10869;BMP180;62667;48.698;8.762;2023-06-14T03:37:54;95608.00;;;11.50
10869;BMP180;62667;48.698;8.762;2023-06-14T03:40:23;95610.00;;;11.40
10869;BMP180;62667;48.698;8.762;2023-06-14T03:42:53;95609.00;;;11.50
10869;BMP180;62667;48.698;8.762;2023-06-14T03:45:20;95599.00;;;11.40
10869;BMP180;62667;48.698;8.762;2023-06-14T03:47:47;95605.00;;;11.70
10869;BMP180;62667;48.698;8.762;2023-06-14T03:50:18;95611.00;;;11.60
10869;BMP180;62667;48.698;8.762;2023-06-14T03:52:47;95614.00;;;11.50
10869;BMP180;62667;48.698;8.762;2023-06-14T03:55:16;95616.00;;;11.60
10869;BMP180;62667;48.698;8.762;2023-06-14T03:57:45;95622.00;;;11.60
10869;BMP180;62667;48.698;8.762;2023-06-14T04:00:13;95628.00;;;11.70
10869;BMP180;62667;48.698;8.762;2023-06-14T04:02:41;95620.00;;;11.70
10869;BMP180;62667;48.698;8.762;2023-06-14T04:05:10;95624.00;;;11.50
10869;BMP180;62667;48.698;8.762;2023-06-14T04:07:38;95627.00;;;11.60
10869;BMP180;62667;48.698;8.762;2023-06-14T04:10:07;95630.00;;;11.60
10869;BMP180;62667;48.698;8.762;2023-06-14T04:12:35;95633.00;;;11.60
10869;BMP180;62667;48.698;8.762;2023-06-14T04:15:04;95632.00;;;11.80
10869;BMP180;62667;48.698;8.762;2023-06-14T04:17:34;95633.00;;;11.80
10869;BMP180;62667;48.698;8.762;2023-06-14T04:20:02;95634.00;;;12.00
10869;BMP180;62667;48.698;8.762;2023-06-14T04:22:30;95634.00;;;12.10
10869;BMP180;62667;48.698;8.762;2023-06-14T04:24:58;95642.00;;;12.20
10869;BMP180;62667;48.698;8.762;2023-06-14T04:27:27;95643.00;;;12.20
10869;BMP180;62667;48.698;8.762;2023-06-14T04:29:57;95651.00;;;12.30
10869;BMP180;62667;48.698;8.762;2023-06-14T04:32:27;95653.00;;;12.30
10869;BMP180;62667;48.698;8.762;2023-06-14T04:34:56;95640.00;;;12.40
10869;BMP180;62667;48.698;8.762;2023-06-14T04:37:23;95644.00;;;12.40
10869;BMP180;62667;48.698;8.762;2023-06-14T04:39:54;95646.00;;;12.30
10869;BMP180;62667;48.698;8.762;2023-06-14T04:42:22;95646.00;;;12.30
10869;BMP180;62667;48.698;8.762;2023-06-14T04:44:51;95644.00;;;12.20
10869;BMP180;62667;48.698;8.762;2023-06-14T04:47:22;95638.00;;;12.10
10869;BMP180;62667;48.698;8.762;2023-06-14T04:49:52;95637.00;;;12.20
10869;BMP180;62667;48.698;8.762;2023-06-14T04:52:20;95645.00;;;12.30
10869;BMP180;62667;48.698;8.762;2023-06-14T04:54:47;95648.00;;;12.40
10869;BMP180;62667;48.698;8.762;2023-06-14T04:57:15;95646.00;;;12.40
10869;BMP180;62667;48.698;8.762;2023-06-14T04:59:43;95650.00;;;12.40
10869;BMP180;62667;48.698;8.762;2023-06-14T05:02:11;95656.00;;;12.50
10869;BMP180;62667;48.698;8.762;2023-06-14T05:04:39;95669.00;;;12.50
10869;BMP180;62667;48.698;8.762;2023-06-14T05:07:08;95662.00;;;12.50
10869;BMP180;62667;48.698;8.762;2023-06-14T05:09:36;95663.00;;;12.60
10869;BMP180;62667;48.698;8.762;2023-06-14T05:12:05;95662.00;;;12.30
10869;BMP180;62667;48.698;8.762;2023-06-14T05:14:34;95667.00;;;12.20
10869;BMP180;62667;48.698;8.762;2023-06-14T05:17:01;95663.00;;;12.40
10869;BMP180;62667;48.698;8.762;2023-06-14T05:19:29;95656.00;;;12.50
10869;BMP180;62667;48.698;8.762;2023-06-14T05:21:56;95658.00;;;12.40
10869;BMP180;62667;48.698;8.762;2023-06-14T05:24:25;95660.00;;;12.40
10869;BMP180;62667;48.698;8.762;2023-06-14T05:26:52;95663.00;;;12.60
10869;BMP180;62667;48.698;8.762;2023-06-14T05:29:20;95667.00;;;12.80
10869;BMP180;62667;48.698;8.762;2023-06-14T05:31:47;95664.00;;;12.90
10869;BMP180;62667;48.698;8.762;2023-06-14T05:34:15;95663.00;;;13.10
10869;BMP180;62667;48.698;8.762;2023-06-14T05:36:42;95643.00;;;13.20
10869;BMP180;62667;48.698;8.762;2023-06-14T05:39:09;95667.00;;;13.30
10869;BMP180;62667;48.698;8.762;2023-06-14T05:41:38;95666.00;;;13.20
10869;BMP180;62667;48.698;8.762;2023-06-14T05:44:06;95672.00;;;13.20
10869;BMP180;62667;48.698;8.762;2023-06-14T05:46:33;95673.00;;;13.40
10869;BMP180;62667;48.698;8.762;2023-06-14T05:49:00;95671.00;;;13.50
10869;BMP180;62667;48.698;8.762;2023-06-14T05:51:27;95680.00;;;13.60
10869;BMP180;62667;48.698;8.762;2023-06-14T05:53:54;95684.00;;;13.80
10869;BMP180;62667;48.698;8.762;2023-06-14T05:56:22;95679.00;;;13.80
10869;BMP180;62667;48.698;8.762;2023-06-14T05:58:50;95689.00;;;13.90
10869;BMP180;62667;48.698;8.762;2023-06-14T06:01:17;95690.00;;;14.10
10869;BMP180;62667;48.698;8.762;2023-06-14T06:03:45;95688.00;;;14.10
10869;BMP180;62667;48.698;8.762;2023-06-14T06:06:12;95692.00;;;14.30
10869;BMP180;62667;48.698;8.762;2023-06-14T06:08:39;95687.00;;;14.50
10869;BMP180;62667;48.698;8.762;2023-06-14T06:11:06;95699.00;;;14.50
10869;BMP180;62667;48.698;8.762;2023-06-14T06:13:34;95697.00;;;14.60
10869;BMP180;62667;48.698;8.762;2023-06-14T06:16:03;95701.00;;;14.60
10869;BMP180;62667;48.698;8.762;2023-06-14T06:18:31;95692.00;;;14.70
10869;BMP180;62667;48.698;8.762;2023-06-14T06:20:58;95699.00;;;15.00
10869;BMP180;62667;48.698;8.762;2023-06-14T06:23:25;95694.00;;;14.90
10869;BMP180;62667;48.698;8.762;2023-06-14T06:25:52;95691.00;;;15.20
10869;BMP180;62667;48.698;8.762;2023-06-14T06:28:19;95692.00;;;15.20
10869;BMP180;62667;48.698;8.762;2023-06-14T06:30:47;95692.00;;;15.40
10869;BMP180;62667;48.698;8.762;2023-06-14T06:33:15;95697.00;;;15.70
10869;BMP180;62667;48.698;8.762;2023-06-14T06:35:42;95704.00;;;15.70
10869;BMP180;62667;48.698;8.762;2023-06-14T06:38:10;95705.00;;;15.90
10869;BMP180;62667;48.698;8.762;2023-06-14T06:40:37;95699.00;;;15.90
10869;BMP180;62667;48.698;8.762;2023-06-14T06:43:04;95707.00;;;15.80
10869;BMP180;62667;48.698;8.762;2023-06-14T06:45:31;95707.00;;;16.10
10869;BMP180;62667;48.698;8.762;2023-06-14T06:47:59;95706.00;;;16.50
10869;BMP180;62667;48.698;8.762;2023-06-14T06:50:27;95716.00;;;16.50
10869;BMP180;62667;48.698;8.762;2023-06-14T06:52:54;95718.00;;;16.40
10869;BMP180;62667;48.698;8.762;2023-06-14T06:55:22;95721.00;;;16.80
10869;BMP180;62667;48.698;8.762;2023-06-14T06:57:49;95725.00;;;16.80
10869;BMP180;62667;48.698;8.762;2023-06-14T07:00:19;95721.00;;;17.00
10869;BMP180;62667;48.698;8.762;2023-06-14T07:02:46;95719.00;;;17.20
10869;BMP180;62667;48.698;8.762;2023-06-14T07:05:13;95710.00;;;17.30
10869;BMP180;62667;48.698;8.762;2023-06-14T07:07:42;95714.00;;;17.30
10869;BMP180;62667;48.698;8.762;2023-06-14T07:10:09;95719.00;;;17.40
10869;BMP180;62667;48.698;8.762;2023-06-14T07:12:36;95724.00;;;17.60
10869;BMP180;62667;48.698;8.762;2023-06-14T07:15:06;95711.00;;;17.80
10869;BMP180;62667;48.698;8.762;2023-06-14T07:17:34;95718.00;;;18.00
10869;BMP180;62667;48.698;8.762;2023-06-14T07:20:02;95721.00;;;18.10
10869;BMP180;62667;48.698;8.762;2023-06-14T07:22:34;95727.00;;;18.20
10869;BMP180;62667;48.698;8.762;2023-06-14T07:25:02;95722.00;;;18.40
10869;BMP180;62667;48.698;8.762;2023-06-14T07:27:29;95718.00;;;18.60
10869;BMP180;62667;48.698;8.762;2023-06-14T07:29:56;95721.00;;;18.70
10869;BMP180;62667;48.698;8.762;2023-06-14T07:32:24;95727.00;;;19.00
10869;BMP180;62667;48.698;8.762;2023-06-14T07:34:51;95730.00;;;19.00
10869;BMP180;62667;48.698;8.762;2023-06-14T07:37:18;95733.00;;;19.20
10869;BMP180;62667;48.698;8.762;2023-06-14T07:39:45;95733.00;;;19.30
10869;BMP180;62667;48.698;8.762;2023-06-14T07:42:13;95735.00;;;19.40
10869;BMP180;62667;48.698;8.762;2023-06-14T07:44:40;95734.00;;;19.50
10869;BMP180;62667;48.698;8.762;2023-06-14T07:47:08;95742.00;;;19.70
10869;BMP180;62667;48.698;8.762;2023-06-14T07:49:35;95746.00;;;19.90
10869;BMP180;62667;48.698;8.762;2023-06-14T07:52:02;95739.00;;;20.00
10869;BMP180;62667;48.698;8.762;2023-06-14T07:54:30;95740.00;;;20.00
10869;BMP180;62667;48.698;8.762;2023-06-14T07:56:58;95742.00;;;20.00
10869;BMP180;62667;48.698;8.762;2023-06-14T07:59:28;95745.00;;;20.10
10869;BMP180;62667;48.698;8.762;2023-06-14T08:01:55;95747.00;;;20.20
10869;BMP180;62667;48.698;8.762;2023-06-14T08:04:22;95750.00;;;20.10
10869;BMP180;62667;48.698;8.762;2023-06-14T08:06:50;95751.00;;;20.30
10869;BMP180;62667;48.698;8.762;2023-06-14T08:09:18;95748.00;;;20.50
10869;BMP180;62667;48.698;8.762;2023-06-14T08:11:46;95751.00;;;20.50
10869;BMP180;62667;48.698;8.762;2023-06-14T08:14:13;95755.00;;;20.50
10869;BMP180;62667;48.698;8.762;2023-06-14T08:16:41;95755.00;;;20.40
10869;BMP180;62667;48.698;8.762;2023-06-14T08:19:08;95764.00;;;20.40
10869;BMP180;62667;48.698;8.762;2023-06-14T08:21:36;95763.00;;;20.40
10869;BMP180;62667;48.698;8.762;2023-06-14T08:24:04;95765.00;;;20.60
10869;BMP180;62667;48.698;8.762;2023-06-14T08:26:31;95766.00;;;20.60
10869;BMP180;62667;48.698;8.762;2023-06-14T08:28:58;95763.00;;;20.70
10869;BMP180;62667;48.698;8.762;2023-06-14T08:31:25;95764.00;;;20.70
10869;BMP180;62667;48.698;8.762;2023-06-14T08:33:54;95766.00;;;20.90
10869;BMP180;62667;48.698;8.762;2023-06-14T08:36:22;95762.00;;;21.10
10869;BMP180;62667;48.698;8.762;2023-06-14T08:38:49;95767.00;;;21.00
10869;BMP180;62667;48.698;8.762;2023-06-14T08:41:22;95764.00;;;20.90
10869;BMP180;62667;48.698;8.762;2023-06-14T08:43:50;95759.00;;;21.00
10869;BMP180;62667;48.698;8.762;2023-06-14T08:46:18;95764.00;;;21.20
10869;BMP180;62667;48.698;8.762;2023-06-14T08:48:49;95772.00;;;21.20
10869;BMP180;62667;48.698;8.762;2023-06-14T08:51:19;95766.00;;;21.20
10869;BMP180;62667;48.698;8.762;2023-06-14T08:53:53;95764.00;;;21.50
10869;BMP180;62667;48.698;8.762;2023-06-14T08:56:26;95771.00;;;21.50
10869;BMP180;62667;48.698;8.762;2023-06-14T08:58:54;95776.00;;;21.50
10869;BMP180;62667;48.698;8.762;2023-06-14T09:01:22;95775.00;;;21.40
10869;BMP180;62667;48.698;8.762;2023-06-14T09:03:50;95776.00;;;21.60
10869;BMP180;62667;48.698;8.762;2023-06-14T09:06:19;95773.00;;;21.60
10869;BMP180;62667;48.698;8.762;2023-06-14T09:08:49;95779.00;;;21.60
10869;BMP180;62667;48.698;8.762;2023-06-14T09:11:18;95782.00;;;21.80
10869;BMP180;62667;48.698;8.762;2023-06-14T09:13:46;95778.00;;;21.70
10869;BMP180;62667;48.698;8.762;2023-06-14T09:16:14;95781.00;;;21.40
10869;BMP180;62667;48.698;8.762;2023-06-14T09:18:43;95786.00;;;21.40
10869;BMP180;62667;48.698;8.762;2023-06-14T09:21:15;95778.00;;;21.60
10869;BMP180;62667;48.698;8.762;2023-06-14T09:23:46;95779.00;;;21.70
10869;BMP180;62667;48.698;8.762;2023-06-14T09:26:16;95783.00;;;21.90
10869;BMP180;62667;48.698;8.762;2023-06-14T09:28:44;95789.00;;;22.10
10869;BMP180;62667;48.698;8.762;2023-06-14T09:31:13;95781.00;;;21.90
10869;BMP180;62667;48.698;8.762;2023-06-14T09:33:42;95788.00;;;22.10
10869;BMP180;62667;48.698;8.762;2023-06-14T09:36:16;95790.00;;;22.40
10869;BMP180;62667;48.698;8.762;2023-06-14T09:38:53;95793.00;;;22.30
10869;BMP180;62667;48.698;8.762;2023-06-14T09:41:21;95769.00;;;22.40
10869;BMP180;62667;48.698;8.762;2023-06-14T09:43:58;95795.00;;;22.50
10869;BMP180;62667;48.698;8.762;2023-06-14T09:46:27;95796.00;;;22.50
10869;BMP180;62667;48.698;8.762;2023-06-14T09:48:55;95790.00;;;22.50
10869;BMP180;62667;48.698;8.762;2023-06-14T09:51:23;95795.00;;;22.70
10869;BMP180;62667;48.698;8.762;2023-06-14T09:53:52;95794.00;;;22.80
10869;BMP180;62667;48.698;8.762;2023-06-14T09:56:27;95792.00;;;23.00
10869;BMP180;62667;48.698;8.762;2023-06-14T09:58:57;95789.00;;;23.10
10869;BMP180;62667;48.698;8.762;2023-06-14T10:01:26;95788.00;;;22.90
10869;BMP180;62667;48.698;8.762;2023-06-14T10:03:58;95790.00;;;23.30
10869;BMP180;62667;48.698;8.762;2023-06-14T10:06:29;95786.00;;;23.50
10869;BMP180;62667;48.698;8.762;2023-06-14T10:08:59;95783.00;;;23.50
10869;BMP180;62667;48.698;8.762;2023-06-14T10:11:27;95786.00;;;23.30
10869;BMP180;62667;48.698;8.762;2023-06-14T10:13:56;95795.00;;;23.50
10869;BMP180;62667;48.698;8.762;2023-06-14T10:16:27;95789.00;;;23.30
10869;BMP180;62667;48.698;8.762;2023-06-14T10:19:03;95784.00;;;23.00
10869;BMP180;62667;48.698;8.762;2023-06-14T10:21:39;95782.00;;;23.20
10869;BMP180;62667;48.698;8.762;2023-06-14T10:24:13;95780.00;;;23.20
10869;BMP180;62667;48.698;8.762;2023-06-14T10:26:51;95794.00;;;23.40
10869;BMP180;62667;48.698;8.762;2023-06-14T10:29:19;95792.00;;;23.10
10869;BMP180;62667;48.698;8.762;2023-06-14T10:31:48;95795.00;;;23.20
10869;BMP180;62667;48.698;8.762;2023-06-14T10:34:23;95799.00;;;23.00
10869;BMP180;62667;48.698;8.762;2023-06-14T10:37:06;95775.00;;;23.00
10869;BMP180;62667;48.698;8.762;2023-06-14T10:39:39;95796.00;;;23.10
10869;BMP180;62667;48.698;8.762;2023-06-14T10:42:07;95791.00;;;22.90
10869;BMP180;62667;48.698;8.762;2023-06-14T10:44:46;95781.00;;;23.10
10869;BMP180;62667;48.698;8.762;2023-06-14T10:47:25;95784.00;;;23.40
10869;BMP180;62667;48.698;8.762;2023-06-14T10:49:54;95792.00;;;23.90
10869;BMP180;62667;48.698;8.762;2023-06-14T10:52:26;95778.00;;;24.10
10869;BMP180;62667;48.698;8.762;2023-06-14T10:55:09;95778.00;;;24.30
10869;BMP180;62667;48.698;8.762;2023-06-14T10:57:40;95783.00;;;24.50
10869;BMP180;62667;48.698;8.762;2023-06-14T11:00:10;95775.00;;;24.70
10869;BMP180;62667;48.698;8.762;2023-06-14T11:03:36;95790.00;;;24.90
10869;BMP180;62667;48.698;8.762;2023-06-14T11:06:14;95793.00;;;24.20
10869;BMP180;62667;48.698;8.762;2023-06-14T11:09:29;95792.00;;;23.90
10869;BMP180;62667;48.698;8.762;2023-06-14T11:12:10;95802.00;;;23.60
10869;BMP180;62667;48.698;8.762;2023-06-14T11:14:38;95784.00;;;23.80
10869;BMP180;62667;48.698;8.762;2023-06-14T11:17:05;95790.00;;;24.10
10869;BMP180;62667;48.698;8.762;2023-06-14T11:19:33;95774.00;;;24.70
10869;BMP180;62667;48.698;8.762;2023-06-14T11:22:00;95774.00;;;24.90
10869;BMP180;62667;48.698;8.762;2023-06-14T11:24:27;95779.00;;;25.10
10869;BMP180;62667;48.698;8.762;2023-06-14T11:26:55;95775.00;;;25.10
10869;BMP180;62667;48.698;8.762;2023-06-14T11:29:25;95776.00;;;25.30
10869;BMP180;62667;48.698;8.762;2023-06-14T11:31:52;95769.00;;;25.30
10869;BMP180;62667;48.698;8.762;2023-06-14T11:34:19;95770.00;;;25.50
10869;BMP180;62667;48.698;8.762;2023-06-14T11:36:47;95750.00;;;25.70
10869;BMP180;62667;48.698;8.762;2023-06-14T11:39:14;95775.00;;;25.60
10869;BMP180;62667;48.698;8.762;2023-06-14T11:41:44;95778.00;;;25.90
10869;BMP180;62667;48.698;8.762;2023-06-14T11:44:12;95770.00;;;25.80
10869;BMP180;62667;48.698;8.762;2023-06-14T11:46:40;95766.00;;;25.40
10869;BMP180;62667;48.698;8.762;2023-06-14T11:49:08;95770.00;;;25.30
10869;BMP180;62667;48.698;8.762;2023-06-14T11:51:36;95769.00;;;25.70
10869;BMP180;62667;48.698;8.762;2023-06-14T11:54:05;95764.00;;;25.90
10869;BMP180;62667;48.698;8.762;2023-06-14T11:56:33;95771.00;;;26.10
10869;BMP180;62667;48.698;8.762;2023-06-14T11:59:03;95773.00;;;26.50
10869;BMP180;62667;48.698;8.762;2023-06-14T12:01:31;95775.00;;;26.40
10869;BMP180;62667;48.698;8.762;2023-06-14T12:04:00;95772.00;;;26.50
10869;BMP180;62667;48.698;8.762;2023-06-14T12:06:31;95775.00;;;26.50
10869;BMP180;62667;48.698;8.762;2023-06-14T12:09:04;95768.00;;;26.50
10869;BMP180;62667;48.698;8.762;2023-06-14T12:11:34;95765.00;;;26.40
10869;BMP180;62667;48.698;8.762;2023-06-14T12:14:04;95760.00;;;26.70
10869;BMP180;62667;48.698;8.762;2023-06-14T12:16:32;95763.00;;;26.80
10869;BMP180;62667;48.698;8.762;2023-06-14T12:19:19;95765.00;;;26.50
10869;BMP180;62667;48.698;8.762;2023-06-14T12:21:48;95770.00;;;26.70
10869;BMP180;62667;48.698;8.762;2023-06-14T12:24:17;95773.00;;;26.70
10869;BMP180;62667;48.698;8.762;2023-06-14T12:26:44;95767.00;;;26.90
10869;BMP180;62667;48.698;8.762;2023-06-14T12:29:13;95771.00;;;27.20
10869;BMP180;62667;48.698;8.762;2023-06-14T12:31:40;95760.00;;;27.40
10869;BMP180;62667;48.698;8.762;2023-06-14T12:34:08;95765.00;;;27.50
10869;BMP180;62667;48.698;8.762;2023-06-14T12:36:37;95766.00;;;27.60
10869;BMP180;62667;48.698;8.762;2023-06-14T12:39:10;95763.00;;;27.40
10869;BMP180;62667;48.698;8.762;2023-06-14T12:41:37;95754.00;;;26.30
10869;BMP180;62667;48.698;8.762;2023-06-14T12:44:07;95757.00;;;26.70
10869;BMP180;62667;48.698;8.762;2023-06-14T12:46:35;95767.00;;;27.00
10869;BMP180;62667;48.698;8.762;2023-06-14T12:49:02;95756.00;;;27.40
10869;BMP180;62667;48.698;8.762;2023-06-14T12:51:30;95766.00;;;27.40
10869;BMP180;62667;48.698;8.762;2023-06-14T12:53:59;95763.00;;;27.40
10869;BMP180;62667;48.698;8.762;2023-06-14T12:56:26;95763.00;;;27.50
10869;BMP180;62667;48.698;8.762;2023-06-14T12:58:54;95767.00;;;27.70
10869;BMP180;62667;48.698;8.762;2023-06-14T13:01:21;95773.00;;;28.00
10869;BMP180;62667;48.698;8.762;2023-06-14T13:03:49;95773.00;;;27.80
10869;BMP180;62667;48.698;8.762;2023-06-14T13:06:21;95775.00;;;28.20
10869;BMP180;62667;48.698;8.762;2023-06-14T13:08:49;95770.00;;;27.90
10869;BMP180;62667;48.698;8.762;2023-06-14T13:11:18;95782.00;;;27.50
10869;BMP180;62667;48.698;8.762;2023-06-14T13:13:46;95784.00;;;27.60
10869;BMP180;62667;48.698;8.762;2023-06-14T13:16:13;95789.00;;;27.60
10869;BMP180;62667;48.698;8.762;2023-06-14T13:18:41;95785.00;;;27.30
10869;BMP180;62667;48.698;8.762;2023-06-14T13:21:08;95802.00;;;27.50
10869;BMP180;62667;48.698;8.762;2023-06-14T13:23:36;95790.00;;;27.30
10869;BMP180;62667;48.698;8.762;2023-06-14T13:26:03;95783.00;;;27.30
10869;BMP180;62667;48.698;8.762;2023-06-14T13:28:32;95791.00;;;27.30
10869;BMP180;62667;48.698;8.762;2023-06-14T13:31:01;95787.00;;;27.60
10869;BMP180;62667;48.698;8.762;2023-06-14T13:33:29;95791.00;;;28.00
10869;BMP180;62667;48.698;8.762;2023-06-14T13:35:56;95788.00;;;28.10
10869;BMP180;62667;48.698;8.762;2023-06-14T13:38:24;95775.00;;;27.50
10869;BMP180;62667;48.698;8.762;2023-06-14T13:40:51;95774.00;;;28.20
10869;BMP180;62667;48.698;8.762;2023-06-14T13:43:19;95782.00;;;28.60
10869;BMP180;62667;48.698;8.762;2023-06-14T13:45:48;95785.00;;;28.40
10869;BMP180;62667;48.698;8.762;2023-06-14T13:48:15;95784.00;;;28.70
10869;BMP180;62667;48.698;8.762;2023-06-14T13:50:43;95787.00;;;28.80
10869;BMP180;62667;48.698;8.762;2023-06-14T13:53:11;95778.00;;;29.00
10869;BMP180;62667;48.698;8.762;2023-06-14T13:55:39;95785.00;;;29.50
10869;BMP180;62667;48.698;8.762;2023-06-14T13:58:07;95787.00;;;29.30
10869;BMP180;62667;48.698;8.762;2023-06-14T14:00:34;95779.00;;;29.60
10869;BMP180;62667;48.698;8.762;2023-06-14T14:03:04;95781.00;;;29.00
10869;BMP180;62667;48.698;8.762;2023-06-14T14:05:32;95777.00;;;29.10
10869;BMP180;62667;48.698;8.762;2023-06-14T14:07:59;95782.00;;;29.00
10869;BMP180;62667;48.698;8.762;2023-06-14T14:10:26;95784.00;;;28.70
10869;BMP180;62667;48.698;8.762;2023-06-14T14:12:53;95784.00;;;28.70
10869;BMP180;62667;48.698;8.762;2023-06-14T14:15:21;95785.00;;;29.00
10869;BMP180;62667;48.698;8.762;2023-06-14T14:17:48;95794.00;;;29.30
10869;BMP180;62667;48.698;8.762;2023-06-14T14:20:17;95790.00;;;29.50